Time;durP1;ratioP1;P1;durP2;ratioP2;P2;SDS_P1;SDS_P2;PMS_P1;PMS_P2;Temp;Humidity;BMP_temperature;BMP_pressure;BME280_temperature;BME280_humidity;BME280_pressure;Samples;Min_cycle;Max_cycle;Signal;HPM_P1;HPM_P2
2022/03/29 00:00:52;;;;;;;18.30;14.67;;;10.70;99.90;;;;;;5052793;28;20503;-34
2022/03/29 00:03:17;;;;;;;19.40;14.77;;;10.80;99.90;;;;;;5045432;28;20507;-34
2022/03/29 00:05:43;;;;;;;19.00;13.83;;;10.70;99.90;;;;;;5051843;28;20652;-34
2022/03/29 00:08:09;;;;;;;18.60;13.87;;;10.60;99.90;;;;;;5054238;28;20201;-34
2022/03/29 00:10:34;;;;;;;22.50;14.97;;;10.60;99.90;;;;;;5055360;28;20228;-34
2022/03/29 00:13:00;;;;;;;17.53;13.00;;;10.60;99.90;;;;;;5046773;28;20182;-34
2022/03/29 00:15:26;;;;;;;18.13;13.40;;;10.50;99.90;;;;;;5065542;28;20656;-34
2022/03/29 00:17:52;;;;;;;22.80;14.20;;;10.60;99.90;;;;;;5046996;28;20190;-34
2022/03/29 00:20:18;;;;;;;20.37;14.80;;;10.50;99.90;;;;;;5045150;28;20192;-34
2022/03/29 00:22:47;;;;;;;22.07;13.67;;;10.40;99.90;;;;;;5068522;28;20184;-34
2022/03/29 00:25:13;;;;;;;23.10;14.93;;;10.40;99.90;;;;;;5054896;28;21008;-34
2022/03/29 00:27:39;;;;;;;17.40;13.47;;;10.20;99.90;;;;;;5046277;28;20467;-34
2022/03/29 00:30:07;;;;;;;27.73;14.37;;;10.30;99.90;;;;;;5049664;28;20423;-34
2022/03/29 00:32:33;;;;;;;19.47;13.93;;;10.30;99.90;;;;;;5050095;28;20752;-34
2022/03/29 00:34:59;;;;;;;18.40;14.63;;;10.10;99.90;;;;;;5050270;28;20416;-34
2022/03/29 00:37:25;;;;;;;18.20;13.73;;;10.40;99.90;;;;;;5061782;28;20510;-34
2022/03/29 00:39:51;;;;;;;21.40;15.33;;;10.30;99.90;;;;;;5072947;28;20477;-34
2022/03/29 00:42:17;;;;;;;21.10;14.30;;;10.30;99.90;;;;;;5049815;28;20193;-34
2022/03/29 00:44:42;;;;;;;20.37;15.13;;;10.30;99.90;;;;;;5060600;28;20189;-34
2022/03/29 00:47:08;;;;;;;24.17;14.70;;;10.30;99.90;;;;;;5049854;28;20206;-34
2022/03/29 00:49:34;;;;;;;23.00;15.47;;;10.30;99.90;;;;;;5049194;28;20201;-34
2022/03/29 00:52:03;;;;;;;23.23;15.57;;;10.30;99.90;;;;;;5063923;28;20535;-33
2022/03/29 00:54:32;;;;;;;21.60;15.37;;;10.30;99.90;;;;;;5072521;28;20576;-34
2022/03/29 00:56:59;;;;;;;23.20;15.67;;;10.30;99.90;;;;;;5049740;28;20431;-34
2022/03/29 00:59:26;;;;;;;24.27;15.53;;;10.20;99.90;;;;;;5056260;28;20499;-34
2022/03/29 01:01:52;;;;;;;25.23;16.27;;;10.30;99.90;;;;;;5048879;28;20420;-34
2022/03/29 01:04:18;;;;;;;22.00;15.60;;;10.40;99.90;;;;;;5048176;28;20424;-34
2022/03/29 01:06:44;;;;;;;20.63;15.63;;;10.50;99.90;;;;;;5063258;28;20466;-34
2022/03/29 01:09:13;;;;;;;22.47;14.90;;;10.40;99.90;;;;;;5066314;28;20499;-34
2022/03/29 01:11:39;;;;;;;21.60;15.90;;;10.40;99.90;;;;;;5059458;28;20423;-34
2022/03/29 01:14:05;;;;;;;24.30;17.07;;;10.40;99.90;;;;;;5051684;28;20416;-34
2022/03/29 01:19:24;;;;;;;21.30;16.70;;;10.10;99.90;;;;;;5049374;28;20201;-34
2022/03/29 01:21:58;;;;;;;19.40;15.67;;;10.30;99.90;;;;;;5063697;28;20980;-34
2022/03/29 01:24:28;;;;;;;21.07;15.90;;;10.10;99.90;;;;;;5068029;28;20440;-34
2022/03/29 01:26:57;;;;;;;27.80;15.90;;;10.30;99.90;;;;;;5049047;28;20484;-34
2022/03/29 01:29:23;;;;;;;21.27;15.33;;;10.10;99.90;;;;;;5056152;28;20427;-34
2022/03/29 01:31:50;;;;;;;23.77;16.53;;;10.00;99.90;;;;;;5053494;28;20451;-34
2022/03/29 01:34:17;;;;;;;21.57;17.20;;;10.20;99.90;;;;;;5049014;28;20557;-34
2022/03/29 01:36:43;;;;;;;22.80;16.37;;;10.20;99.90;;;;;;5056095;28;20724;-34
2022/03/29 01:39:09;;;;;;;22.07;16.77;;;10.30;99.90;;;;;;5080353;28;21032;-34
2022/03/29 01:41:34;;;;;;;26.40;17.27;;;10.40;99.90;;;;;;5050501;28;20185;-34
2022/03/29 01:44:00;;;;;;;24.63;17.33;;;10.40;99.90;;;;;;5052722;28;20339;-34
2022/03/29 01:46:26;;;;;;;20.97;16.27;;;10.20;99.90;;;;;;5053966;28;20930;-34
2022/03/29 01:48:53;;;;;;;24.80;17.63;;;10.10;99.90;;;;;;5048953;28;20837;-34
2022/03/29 01:51:18;;;;;;;19.47;14.63;;;10.10;99.90;;;;;;5049716;28;20432;-34
2022/03/29 01:53:51;;;;;;;24.80;16.13;;;10.20;99.90;;;;;;5072290;28;20419;-34
2022/03/29 01:56:16;;;;;;;21.60;15.73;;;10.10;99.90;;;;;;5056310;28;20241;-34
2022/03/29 01:58:42;;;;;;;26.53;17.37;;;9.90;99.90;;;;;;5047979;28;20468;-34
2022/03/29 02:01:08;;;;;;;23.33;17.60;;;10.00;99.90;;;;;;5050671;28;20196;-34
2022/03/29 02:03:33;;;;;;;22.70;17.50;;;9.90;99.90;;;;;;5046107;28;20193;-34
2022/03/29 02:05:59;;;;;;;23.10;17.97;;;9.90;99.90;;;;;;5046622;28;20656;-34
2022/03/29 02:08:24;;;;;;;26.90;16.87;;;9.90;99.90;;;;;;5059977;28;20545;-34
2022/03/29 02:10:50;;;;;;;26.73;17.43;;;10.10;99.90;;;;;;5057914;28;20182;-34
2022/03/29 02:13:16;;;;;;;22.20;16.70;;;10.10;99.90;;;;;;5047274;28;20236;-34
2022/03/29 02:15:42;;;;;;;25.63;16.43;;;9.80;99.90;;;;;;5047262;28;20228;-34
2022/03/29 02:18:08;;;;;;;21.83;16.67;;;9.80;99.90;;;;;;5047285;28;20432;-34
2022/03/29 02:20:34;;;;;;;23.60;17.20;;;9.80;99.90;;;;;;5045921;28;20190;-34
2022/03/29 02:23:06;;;;;;;22.30;16.83;;;9.80;99.90;;;;;;5055908;28;20774;-34
2022/03/29 02:25:32;;;;;;;24.67;17.90;;;10.00;99.90;;;;;;5058163;28;20196;-34
2022/03/29 02:27:58;;;;;;;25.07;18.30;;;9.80;99.90;;;;;;5046912;28;20891;-34
2022/03/29 02:30:24;;;;;;;23.80;17.70;;;9.90;99.90;;;;;;5055778;28;20419;-34
2022/03/29 02:32:49;;;;;;;22.87;18.10;;;9.90;99.90;;;;;;5046939;28;20265;-34
2022/03/29 02:35:15;;;;;;;26.30;18.57;;;9.80;99.90;;;;;;5046960;28;20192;-34
2022/03/29 02:37:41;;;;;;;27.13;19.40;;;9.90;99.90;;;;;;5061936;28;20176;-34
2022/03/29 02:40:09;;;;;;;24.87;16.90;;;9.70;99.90;;;;;;5066985;28;20186;-34
2022/03/29 02:42:46;;;;;;;24.13;18.90;;;9.80;99.90;;;;;;5046937;28;20424;-34
2022/03/29 02:45:17;;;;;;;26.07;18.80;;;9.80;99.90;;;;;;5051908;28;20428;-34
2022/03/29 02:47:54;;;;;;;27.80;20.93;;;9.70;99.90;;;;;;5046622;28;20471;-34
2022/03/29 02:50:20;;;;;;;27.83;19.63;;;9.70;99.90;;;;;;5053456;28;20515;-34
2022/03/29 02:53:01;;;;;;;28.47;20.67;;;9.80;99.90;;;;;;5064667;28;20435;-34
2022/03/29 02:55:29;;;;;;;26.50;19.53;;;9.80;99.90;;;;;;5063814;28;20497;-34
2022/03/29 02:57:56;;;;;;;32.27;21.47;;;9.80;99.90;;;;;;5008679;28;1097497;-34
2022/03/29 03:00:22;;;;;;;30.97;19.50;;;9.70;99.90;;;;;;5047496;28;20182;-34
2022/03/29 03:02:50;;;;;;;24.83;19.37;;;9.80;99.90;;;;;;5059037;28;20436;-34
2022/03/29 03:05:17;;;;;;;28.40;20.30;;;9.90;99.90;;;;;;5047348;28;20783;-34
2022/03/29 03:07:44;;;;;;;25.83;19.17;;;9.90;99.90;;;;;;5058693;28;20815;-34
2022/03/29 03:10:11;;;;;;;28.80;19.67;;;9.90;99.90;;;;;;5068532;28;20425;-34
2022/03/29 03:12:38;;;;;;;26.10;20.03;;;9.90;99.90;;;;;;5047318;28;20779;-34
2022/03/29 03:15:05;;;;;;;27.13;20.90;;;9.70;99.90;;;;;;5055042;28;20443;-34
2022/03/29 03:17:31;;;;;;;28.60;20.70;;;9.70;99.90;;;;;;5049150;28;20527;-34
2022/03/29 03:19:57;;;;;;;28.67;20.73;;;9.70;99.90;;;;;;5046425;28;20523;-33
2022/03/29 03:22:22;;;;;;;31.67;21.73;;;9.80;99.90;;;;;;5050669;28;20399;-33
2022/03/29 03:24:48;;;;;;;30.50;21.27;;;9.80;99.90;;;;;;5069339;28;20193;-34
2022/03/29 03:27:16;;;;;;;29.23;20.70;;;9.60;99.90;;;;;;5049804;28;20217;-34
2022/03/29 03:29:42;;;;;;;29.30;20.83;;;9.70;99.90;;;;;;5049995;28;20236;-34
2022/03/29 03:32:08;;;;;;;31.57;22.73;;;9.80;99.90;;;;;;5049002;28;20423;-33
2022/03/29 03:34:34;;;;;;;32.13;23.03;;;9.90;99.90;;;;;;5047046;28;20436;-34
2022/03/29 03:37:02;;;;;;;32.37;22.00;;;9.80;99.90;;;;;;5049246;28;20490;-34
2022/03/29 03:39:33;;;;;;;36.90;23.73;;;9.80;99.90;;;;;;5079468;28;20430;-34
2022/03/29 03:42:06;;;;;;;26.53;21.43;;;9.70;99.90;;;;;;5048618;28;20784;-34
2022/03/29 03:44:32;;;;;;;30.90;23.37;;;9.80;99.90;;;;;;5048175;28;20844;-34
2022/03/29 03:46:57;;;;;;;29.23;21.87;;;9.70;99.90;;;;;;5048239;28;20467;-34
2022/03/29 03:49:24;;;;;;;30.60;22.67;;;9.80;99.90;;;;;;5045713;28;20185;-33
2022/03/29 03:51:50;;;;;;;30.10;22.50;;;9.70;99.90;;;;;;5045428;28;20182;-34
2022/03/29 03:54:15;;;;;;;33.70;24.80;;;9.70;99.90;;;;;;5074400;28;20421;-34
2022/03/29 03:56:41;;;;;;;33.40;23.33;;;9.60;99.90;;;;;;5047304;28;20229;-34
2022/03/29 03:59:07;;;;;;;28.57;21.50;;;9.80;99.90;;;;;;5046662;28;20272;-34
2022/03/29 04:01:34;;;;;;;28.17;20.83;;;9.80;99.90;;;;;;5055744;28;20208;-34
2022/03/29 04:04:00;;;;;;;33.37;23.17;;;9.60;99.90;;;;;;5045756;28;20332;-34
2022/03/29 04:06:26;;;;;;;31.60;22.87;;;9.60;99.90;;;;;;5051359;28;20579;-34
2022/03/29 04:08:51;;;;;;;31.50;23.03;;;9.50;99.90;;;;;;5062559;28;20185;-34
2022/03/29 04:11:19;;;;;;;28.77;21.60;;;9.60;99.90;;;;;;5068051;28;20423;-34
2022/03/29 04:13:44;;;;;;;30.33;23.27;;;9.50;99.90;;;;;;5050498;28;20585;-34
2022/03/29 04:16:10;;;;;;;31.20;23.10;;;9.50;99.90;;;;;;5056980;28;20426;-34
2022/03/29 04:18:35;;;;;;;30.40;22.53;;;9.50;99.90;;;;;;5050699;28;20239;-34
2022/03/29 04:21:01;;;;;;;36.23;24.47;;;9.50;99.90;;;;;;5048356;28;20273;-34
2022/03/29 04:23:28;;;;;;;40.53;23.23;;;9.50;99.90;;;;;;5068603;28;20629;-34
2022/03/29 04:25:54;;;;;;;34.63;24.50;;;9.40;99.90;;;;;;5070524;28;20185;-34
2022/03/29 04:28:20;;;;;;;34.50;24.63;;;9.30;99.90;;;;;;5057202;28;20460;-34
2022/03/29 04:30:46;;;;;;;36.93;26.37;;;9.30;99.90;;;;;;5052699;28;20515;-34
2022/03/29 04:33:11;;;;;;;35.77;25.17;;;9.40;99.90;;;;;;5050116;28;20413;-34
2022/03/29 04:35:37;;;;;;;35.13;25.47;;;9.20;99.90;;;;;;5050256;28;20420;-34
2022/03/29 04:38:03;;;;;;;36.10;25.57;;;9.10;99.90;;;;;;5054417;28;20248;-34
2022/03/29 04:40:28;;;;;;;37.90;25.50;;;9.20;99.90;;;;;;5059871;28;20431;-34
2022/03/29 04:42:54;;;;;;;38.57;26.70;;;9.10;99.90;;;;;;5055322;28;20195;-34
2022/03/29 04:45:20;;;;;;;33.20;25.47;;;9.10;99.90;;;;;;5058515;28;20197;-34
2022/03/29 04:47:47;;;;;;;35.80;25.80;;;9.20;99.90;;;;;;5082679;28;20550;-34
2022/03/29 04:50:15;;;;;;;32.07;24.90;;;9.10;99.90;;;;;;5069712;28;20251;-34
2022/03/29 04:52:44;;;;;;;35.27;25.10;;;9.30;99.90;;;;;;5050948;28;20432;-33
2022/03/29 04:55:11;;;;;;;37.90;26.47;;;9.30;99.90;;;;;;5062064;28;20434;-34
2022/03/29 04:57:37;;;;;;;33.87;23.73;;;9.50;99.90;;;;;;5070824;28;20458;-34
2022/03/29 05:00:05;;;;;;;38.93;25.13;;;9.40;99.90;;;;;;5051531;28;20428;-34
2022/03/29 05:02:31;;;;;;;39.13;26.07;;;9.50;99.90;;;;;;5055383;28;20208;-34
2022/03/29 05:04:57;;;;;;;36.67;27.10;;;9.40;99.90;;;;;;5048103;28;20481;-34
2022/03/29 05:07:23;;;;;;;37.93;25.80;;;9.40;99.90;;;;;;5049094;28;20509;-34
2022/03/29 05:09:50;;;;;;;36.87;25.90;;;9.40;99.90;;;;;;5062532;28;20430;-34
2022/03/29 05:12:16;;;;;;;34.40;26.00;;;9.30;99.90;;;;;;5057749;28;20728;-34
2022/03/29 05:14:42;;;;;;;37.03;25.30;;;9.10;99.90;;;;;;5058255;28;20462;-34
2022/03/29 05:17:08;;;;;;;33.43;24.40;;;9.00;99.90;;;;;;5066911;28;20418;-34
2022/03/29 05:19:34;;;;;;;36.73;25.90;;;9.00;99.90;;;;;;5069301;28;20412;-34
2022/03/29 05:21:59;;;;;;;34.77;25.23;;;9.20;99.90;;;;;;5048349;28;20268;-34
2022/03/29 05:24:26;;;;;;;40.40;27.03;;;8.80;99.90;;;;;;5067458;28;20192;-34
2022/03/29 05:26:51;;;;;;;39.77;26.80;;;8.80;99.90;;;;;;5068701;28;20210;-34
2022/03/29 05:29:18;;;;;;;38.50;26.80;;;9.00;99.90;;;;;;5049204;28;20791;-34
2022/03/29 05:31:44;;;;;;;35.87;27.00;;;8.80;99.90;;;;;;5064959;28;20317;-34
2022/03/29 05:34:10;;;;;;;39.53;27.10;;;8.70;99.90;;;;;;5066232;28;20783;-34
2022/03/29 05:36:35;;;;;;;39.47;28.53;;;8.70;99.90;;;;;;5048896;28;20547;-34
2022/03/29 05:39:03;;;;;;;39.87;27.67;;;8.50;99.90;;;;;;5055953;28;20289;-34
2022/03/29 05:41:29;;;;;;;41.17;26.97;;;8.60;99.90;;;;;;5061309;28;20300;-34
2022/03/29 05:43:55;;;;;;;43.30;30.67;;;8.80;99.90;;;;;;5070911;28;20902;-34
2022/03/29 05:49:05;;;;;;;42.30;27.23;;;8.80;99.90;;;;;;5067700;28;20605;-34
2022/03/29 05:51:31;;;;;;;44.60;28.60;;;8.80;99.90;;;;;;5069569;28;20524;-34
2022/03/29 05:53:58;;;;;;;39.73;26.63;;;8.80;99.90;;;;;;5065564;28;20265;-34
2022/03/29 05:56:24;;;;;;;41.90;29.20;;;8.80;99.90;;;;;;5061185;28;20510;-34
2022/03/29 05:58:50;;;;;;;43.73;29.03;;;8.90;99.90;;;;;;5047478;28;20428;-34
2022/03/29 06:01:16;;;;;;;41.60;28.73;;;9.10;99.90;;;;;;5055444;28;20194;-34
2022/03/29 06:03:42;;;;;;;44.90;29.93;;;9.20;99.90;;;;;;5071152;28;20426;-34
2022/03/29 06:06:08;;;;;;;42.00;28.50;;;8.80;99.90;;;;;;5056737;28;20447;-33
2022/03/29 06:08:35;;;;;;;41.90;27.87;;;8.90;99.90;;;;;;5070140;28;20189;-34
2022/03/29 06:11:02;;;;;;;45.97;28.87;;;8.80;99.90;;;;;;5065635;28;20193;-34
2022/03/29 06:13:28;;;;;;;49.50;30.63;;;8.90;99.90;;;;;;5076367;28;20455;-34
2022/03/29 06:15:54;;;;;;;46.63;29.53;;;8.80;99.90;;;;;;5070173;28;20424;-33
2022/03/29 06:18:20;;;;;;;43.20;29.30;;;9.00;99.90;;;;;;5048793;28;20438;-34
2022/03/29 06:20:47;;;;;;;43.93;28.83;;;9.20;99.90;;;;;;5047602;28;20988;-34
2022/03/29 06:23:13;;;;;;;44.63;30.40;;;8.80;99.90;;;;;;5051955;28;20459;-34
2022/03/29 06:25:39;;;;;;;42.33;29.10;;;8.90;99.90;;;;;;5065031;28;20441;-34
2022/03/29 06:28:05;;;;;;;44.70;29.97;;;9.10;99.90;;;;;;5055165;28;20468;-34
2022/03/29 06:30:30;;;;;;;45.57;29.60;;;8.90;99.90;;;;;;5066973;28;20426;-34
2022/03/29 06:32:56;;;;;;;45.77;31.00;;;8.80;99.90;;;;;;5058294;28;20230;-34
2022/03/29 06:35:26;;;;;;;44.47;29.87;;;8.80;99.90;;;;;;5056914;28;20227;-34
2022/03/29 06:37:55;;;;;;;49.90;30.70;;;8.90;99.90;;;;;;5057019;28;20443;-34
2022/03/29 06:40:22;;;;;;;50.07;30.90;;;8.90;99.90;;;;;;5061110;28;20428;-34
2022/03/29 06:42:48;;;;;;;42.37;30.47;;;8.90;99.90;;;;;;5057535;28;20775;-34
2022/03/29 06:45:14;;;;;;;52.67;31.47;;;8.90;99.90;;;;;;5055463;28;20463;-34
2022/03/29 06:47:41;;;;;;;47.00;31.63;;;9.00;99.90;;;;;;5057173;28;20510;-34
2022/03/29 06:50:08;;;;;;;45.00;30.53;;;9.10;99.90;;;;;;5054184;28;20579;-34
2022/03/29 06:52:42;;;;;;;47.93;31.00;;;9.20;99.90;;;;;;5052623;28;20436;-34
2022/03/29 06:55:11;;;;;;;51.87;32.77;;;9.00;99.90;;;;;;5055783;28;20468;-34
2022/03/29 06:57:37;;;;;;;52.63;32.43;;;8.90;99.90;;;;;;5056925;28;20448;-34
2022/03/29 07:00:09;;;;;;;50.60;31.97;;;9.00;99.90;;;;;;5054481;28;20468;-34
2022/03/29 07:02:35;;;;;;;48.33;30.90;;;9.10;99.90;;;;;;5053186;28;20419;-34
2022/03/29 07:05:02;;;;;;;47.70;30.90;;;9.10;99.90;;;;;;5048669;28;20802;-34
2022/03/29 07:07:27;;;;;;;46.40;30.57;;;9.10;99.90;;;;;;5060508;28;20459;-34
2022/03/29 07:12:49;;;;;;;52.10;32.07;;;9.10;99.90;;;;;;5055432;28;20275;-34
2022/03/29 07:15:15;;;;;;;45.27;29.97;;;9.10;99.90;;;;;;5046849;28;20527;-34
2022/03/29 07:17:41;;;;;;;46.97;31.27;;;9.10;99.90;;;;;;5051395;28;20459;-34
2022/03/29 07:20:07;;;;;;;49.83;32.00;;;9.10;99.90;;;;;;5059307;28;20784;-34
2022/03/29 07:22:35;;;;;;;49.97;32.53;;;9.10;99.90;;;;;;5059985;28;20198;-33
2022/03/29 07:25:01;;;;;;;50.83;31.97;;;9.10;99.90;;;;;;5058151;28;20439;-33
2022/03/29 07:27:26;;;;;;;51.17;32.60;;;8.90;99.90;;;;;;5066191;28;20989;-34
2022/03/29 07:29:53;;;;;;;47.73;33.17;;;8.70;99.90;;;;;;5046387;28;20225;-34
2022/03/29 07:32:18;;;;;;;53.73;33.47;;;8.80;99.90;;;;;;5052817;28;20489;-34
2022/03/29 07:34:44;;;;;;;50.90;32.20;;;8.90;99.90;;;;;;5045524;28;20923;-34
2022/03/29 07:37:10;;;;;;;52.30;33.50;;;8.80;99.90;;;;;;5055784;28;20501;-34
2022/03/29 07:39:35;;;;;;;57.53;33.83;;;8.90;99.90;;;;;;5057102;28;20180;-34
2022/03/29 07:42:01;;;;;;;54.73;35.67;;;8.90;99.90;;;;;;5067110;28;20193;-34
2022/03/29 07:44:27;;;;;;;56.60;34.63;;;8.90;99.90;;;;;;5059344;28;20193;-34
2022/03/29 07:46:53;;;;;;;60.27;35.43;;;8.80;99.90;;;;;;5060880;28;20217;-34
2022/03/29 07:49:18;;;;;;;59.70;36.37;;;8.90;99.90;;;;;;5047111;28;20189;-34
2022/03/29 07:51:44;;;;;;;62.47;37.27;;;8.70;99.90;;;;;;5045772;28;20738;-34
2022/03/29 07:54:10;;;;;;;61.37;37.17;;;8.70;99.90;;;;;;5053558;28;20194;-34
2022/03/29 07:56:35;;;;;;;59.70;35.90;;;8.60;99.90;;;;;;5068631;28;20218;-34
2022/03/29 07:59:01;;;;;;;58.90;35.60;;;8.60;99.90;;;;;;5050211;28;20619;-34
2022/03/29 08:01:28;;;;;;;62.60;35.40;;;8.70;99.90;;;;;;5047814;28;20655;-33
2022/03/29 08:03:55;;;;;;;63.20;37.20;;;9.00;99.90;;;;;;5052769;28;20202;-34
2022/03/29 08:06:21;;;;;;;55.30;36.27;;;8.90;99.90;;;;;;5046440;28;20515;-34
2022/03/29 08:08:47;;;;;;;64.60;36.80;;;8.70;99.90;;;;;;5054077;28;20449;-34
2022/03/29 08:11:13;;;;;;;56.47;35.20;;;8.60;99.90;;;;;;5058497;28;20907;-34
2022/03/29 08:13:39;;;;;;;57.70;35.17;;;8.70;99.90;;;;;;5057587;28;20441;-34
2022/03/29 08:16:05;;;;;;;59.40;36.40;;;8.70;99.90;;;;;;5045054;28;20436;-34
2022/03/29 08:18:32;;;;;;;59.07;35.10;;;8.60;99.90;;;;;;5052638;28;20197;-34
2022/03/29 08:20:58;;;;;;;57.87;35.03;;;8.80;99.90;;;;;;5045888;28;20850;-33
2022/03/29 08:23:25;;;;;;;62.60;35.27;;;8.80;99.90;;;;;;5046777;28;20768;-34
2022/03/29 08:25:51;;;;;;;64.53;37.83;;;8.70;99.90;;;;;;5070924;28;20499;-34
2022/03/29 08:28:19;;;;;;;62.20;38.73;;;8.60;99.90;;;;;;5055396;28;20475;-33
2022/03/29 08:30:45;;;;;;;69.40;38.60;;;8.60;99.90;;;;;;5045959;28;20197;-34
2022/03/29 08:33:11;;;;;;;60.90;37.80;;;8.70;99.90;;;;;;5048807;28;20781;-34
2022/03/29 08:35:38;;;;;;;58.63;35.57;;;8.80;99.90;;;;;;5046467;28;20431;-34
2022/03/29 08:38:05;;;;;;;60.17;38.97;;;8.80;99.90;;;;;;5045970;28;20931;-34
2022/03/29 08:40:32;;;;;;;55.87;34.57;;;8.90;99.90;;;;;;5062177;28;20432;-34
2022/03/29 08:43:00;;;;;;;54.63;34.53;;;8.90;99.90;;;;;;5056545;28;20416;-34
2022/03/29 08:45:30;;;;;;;56.00;34.57;;;9.20;99.90;;;;;;5046443;28;20428;-34
2022/03/29 08:47:57;;;;;;;53.60;34.03;;;9.20;99.90;;;;;;5056744;28;20471;-34
2022/03/29 08:50:26;;;;;;;56.70;35.50;;;9.10;99.90;;;;;;5046729;28;20420;-34
2022/03/29 08:52:52;;;;;;;56.27;36.13;;;9.20;99.90;;;;;;5049915;28;20424;-34
2022/03/29 08:55:19;;;;;;;61.00;36.40;;;9.20;99.90;;;;;;5058260;28;20558;-34
2022/03/29 08:57:48;;;;;;;58.80;34.80;;;9.40;99.90;;;;;;5076553;28;20446;-34
2022/03/29 09:00:16;;;;;;;58.37;35.90;;;9.10;99.90;;;;;;5048226;28;20436;-34
2022/03/29 09:02:42;;;;;;;60.60;37.00;;;9.00;99.90;;;;;;5056218;28;20438;-34
2022/03/29 09:05:13;;;;;;;56.50;36.60;;;9.20;99.90;;;;;;5048153;28;20434;-34
2022/03/29 09:07:50;;;;;;;59.03;37.90;;;9.20;99.90;;;;;;5047975;28;20270;-34
2022/03/29 09:10:17;;;;;;;58.80;38.83;;;9.10;99.90;;;;;;5067370;28;20441;-34
2022/03/29 09:12:43;;;;;;;55.80;37.13;;;9.20;99.90;;;;;;5070861;28;20416;-34
2022/03/29 09:15:09;;;;;;;57.17;36.30;;;9.20;99.90;;;;;;5057741;28;20428;-34
2022/03/29 09:17:46;;;;;;;60.53;36.60;;;9.40;99.90;;;;;;5052515;28;20428;-34
2022/03/29 09:20:21;;;;;;;59.23;35.60;;;9.30;99.90;;;;;;5048517;28;20771;-34
2022/03/29 09:22:48;;;;;;;53.53;34.70;;;9.30;99.90;;;;;;5049301;28;20470;-34
2022/03/29 09:25:16;;;;;;;56.13;35.27;;;9.40;99.90;;;;;;5067883;28;20832;-34
2022/03/29 09:28:14;;;;;;;55.83;34.43;;;9.40;99.90;;;;;;5059511;28;20463;-34
2022/03/29 09:30:42;;;;;;;57.07;36.60;;;9.50;99.90;;;;;;5047014;28;20428;-34
2022/03/29 09:33:13;;;;;;;58.37;37.90;;;9.60;99.90;;;;;;5059317;28;20451;-34
2022/03/29 09:35:58;;;;;;;53.97;35.30;;;9.70;99.90;;;;;;5048879;28;20432;-34
2022/03/29 09:38:33;;;;;;;57.60;37.17;;;9.50;99.90;;;;;;5047271;28;20528;-34
2022/03/29 09:41:00;;;;;;;59.20;37.27;;;9.50;99.90;;;;;;5056809;28;20720;-34
2022/03/29 09:43:28;;;;;;;56.17;36.13;;;9.40;99.90;;;;;;5056122;28;20432;-34
2022/03/29 09:46:00;;;;;;;62.27;38.10;;;9.50;99.90;;;;;;5049052;28;20799;-34
2022/03/29 09:48:36;;;;;;;57.77;36.43;;;9.40;99.90;;;;;;5057155;28;20570;-34
2022/03/29 09:51:07;;;;;;;63.13;38.57;;;9.60;99.90;;;;;;5048260;28;20906;-34
2022/03/29 09:53:48;;;;;;;62.00;37.87;;;9.50;99.90;;;;;;5055087;28;20605;-34
2022/03/29 09:56:16;;;;;;;54.20;34.67;;;9.50;99.90;;;;;;5064016;28;20521;-34
2022/03/29 09:58:42;;;;;;;54.20;34.87;;;9.50;99.90;;;;;;5066576;28;20881;-34
2022/03/29 10:01:23;;;;;;;58.70;35.17;;;9.60;99.90;;;;;;5047421;28;20421;-34
2022/03/29 10:03:51;;;;;;;62.03;35.80;;;9.70;99.90;;;;;;5051342;28;20496;-34
2022/03/29 10:06:18;;;;;;;57.27;37.77;;;9.80;99.90;;;;;;5047261;28;20463;-34
2022/03/29 10:11:34;;;;;;;56.30;35.80;;;9.80;99.90;;;;;;5067213;28;20472;-34
2022/03/29 10:14:04;;;;;;;52.20;33.90;;;9.90;99.90;;;;;;5065832;28;20428;-34
2022/03/29 10:16:30;;;;;;;53.17;33.73;;;9.70;99.90;;;;;;5047846;28;20420;-34
2022/03/29 10:18:56;;;;;;;59.17;34.93;;;9.80;99.90;;;;;;5048906;28;20784;-34
2022/03/29 10:21:22;;;;;;;60.20;34.93;;;9.90;99.90;;;;;;5046074;28;20424;-34
2022/03/29 10:23:49;;;;;;;51.97;33.30;;;9.90;99.90;;;;;;5047345;28;20447;-34
2022/03/29 10:26:21;;;;;;;48.67;33.13;;;9.80;99.90;;;;;;5063464;28;20185;-34
2022/03/29 10:28:48;;;;;;;54.70;34.00;;;9.90;99.90;;;;;;5064219;28;20507;-34
2022/03/29 10:31:33;;;;;;;53.53;33.27;;;9.80;99.90;;;;;;5047334;28;20794;-34
2022/03/29 10:34:11;;;;;;;51.70;34.40;;;10.00;99.90;;;;;;5057331;28;20789;-34
2022/03/29 10:37:08;;;;;;;52.73;35.17;;;10.10;99.90;;;;;;5047720;28;20787;-34
2022/03/29 10:39:45;;;;;;;53.27;35.77;;;10.10;99.90;;;;;;5043790;28;20786;-34
2022/03/29 10:42:37;;;;;;;61.83;38.93;;;10.10;99.90;;;;;;5057887;28;20431;-34
2022/03/29 10:45:10;;;;;;;53.93;34.97;;;10.30;99.90;;;;;;5046865;28;20461;-34
2022/03/29 10:47:38;;;;;;;60.20;36.17;;;10.20;99.90;;;;;;5050480;28;20451;-34
2022/03/29 10:50:10;;;;;;;58.63;35.90;;;10.10;99.90;;;;;;5047208;28;20519;-34
2022/03/29 10:52:38;;;;;;;55.67;36.53;;;10.20;99.90;;;;;;5046122;28;20431;-34
2022/03/29 10:55:25;;;;;;;63.17;36.30;;;10.30;99.90;;;;;;5053901;28;20477;-34
2022/03/29 10:58:04;;;;;;;59.70;37.07;;;10.10;99.90;;;;;;5067330;28;20975;-34
2022/03/29 11:00:33;;;;;;;59.43;37.73;;;10.20;99.90;;;;;;5047106;28;20814;-34
2022/03/29 11:03:08;;;;;;;56.80;35.40;;;10.30;99.90;;;;;;5046535;28;20412;-34
2022/03/29 11:06:10;;;;;;;58.17;34.93;;;10.40;99.90;;;;;;5046038;28;20458;-34
2022/03/29 11:08:37;;;;;;;63.97;37.57;;;10.30;99.90;;;;;;5047198;28;20533;-34
2022/03/29 11:11:04;;;;;;;60.07;36.93;;;10.50;99.90;;;;;;5054771;28;20496;-34
2022/03/29 11:13:30;;;;;;;69.13;39.23;;;10.50;99.90;;;;;;5061065;28;21045;-34
2022/03/29 11:16:02;;;;;;;72.73;40.57;;;10.30;99.90;;;;;;5046925;28;20531;-34
2022/03/29 11:18:31;;;;;;;69.17;40.60;;;10.20;99.90;;;;;;5056184;28;20193;-34
2022/03/29 11:21:02;;;;;;;68.57;40.57;;;10.40;99.90;;;;;;5047375;28;20428;-34
2022/03/29 11:23:34;;;;;;;68.40;40.27;;;10.40;99.90;;;;;;5049030;28;20598;-34
2022/03/29 11:26:10;;;;;;;71.70;38.63;;;10.40;99.90;;;;;;5046480;28;20424;-34
2022/03/29 11:28:45;;;;;;;60.60;37.10;;;10.50;99.90;;;;;;5061807;28;20450;-34
2022/03/29 11:31:10;;;;;;;65.50;38.37;;;10.60;99.90;;;;;;5054765;28;20431;-34
2022/03/29 11:33:36;;;;;;;70.37;41.67;;;10.60;99.90;;;;;;5046964;28;20424;-34
2022/03/29 11:36:06;;;;;;;67.10;39.90;;;10.50;99.90;;;;;;5054214;28;20554;-34
2022/03/29 11:38:33;;;;;;;67.13;35.13;;;10.70;99.90;;;;;;5047002;28;20197;-34
2022/03/29 11:41:05;;;;;;;64.63;39.00;;;10.70;99.90;;;;;;5044286;28;20436;-34
2022/03/29 11:43:32;;;;;;;57.70;36.20;;;10.70;99.90;;;;;;5067777;28;20456;-34
2022/03/29 11:45:58;;;;;;;70.20;39.70;;;10.80;99.90;;;;;;5059766;28;20431;-34
2022/03/29 11:48:26;;;;;;;66.70;36.60;;;11.00;99.90;;;;;;5046744;28;20961;-34
2022/03/29 11:51:00;;;;;;;65.77;38.73;;;11.10;99.90;;;;;;5049292;28;20289;-34
2022/03/29 11:53:36;;;;;;;69.23;39.30;;;11.00;99.90;;;;;;5046947;28;20929;-34
2022/03/29 11:56:09;;;;;;;62.23;39.00;;;11.20;99.90;;;;;;5045454;28;20507;-34
2022/03/29 11:58:36;;;;;;;62.20;37.70;;;11.00;99.90;;;;;;5061231;28;20629;-34
2022/03/29 12:01:07;;;;;;;72.93;41.00;;;11.00;99.90;;;;;;5055981;28;20420;-34
2022/03/29 12:03:44;;;;;;;78.67;42.63;;;11.10;99.90;;;;;;5045305;28;20420;-34
2022/03/29 12:06:12;;;;;;;79.07;43.30;;;11.10;99.90;;;;;;5058107;28;20424;-34
2022/03/29 12:08:46;;;;;;;73.43;42.90;;;11.10;99.90;;;;;;5046551;28;20518;-34
2022/03/29 12:11:13;;;;;;;78.10;42.80;;;11.00;99.90;;;;;;5064599;28;20890;-34
2022/03/29 12:13:39;;;;;;;82.57;42.97;;;11.10;99.90;;;;;;5065079;28;20452;-34
2022/03/29 12:16:23;;;;;;;81.30;44.43;;;11.30;99.90;;;;;;5062339;28;21040;-34
2022/03/29 12:18:50;;;;;;;88.30;45.33;;;10.90;99.90;;;;;;5045465;28;20589;-34
2022/03/29 12:21:19;;;;;;;90.97;46.17;;;10.90;99.90;;;;;;5053448;28;20427;-34
2022/03/29 12:23:46;;;;;;;95.80;48.80;;;11.00;99.90;;;;;;5047547;28;20763;-34
2022/03/29 12:26:15;;;;;;;108.57;51.90;;;10.90;99.90;;;;;;5049040;28;20794;-34
2022/03/29 12:28:42;;;;;;;102.20;51.67;;;10.90;99.90;;;;;;5067283;28;21001;-34
2022/03/29 12:31:13;;;;;;;107.37;52.97;;;10.90;99.90;;;;;;5070206;28;20416;-35
2022/03/29 12:33:40;;;;;;;110.67;52.30;;;10.80;99.90;;;;;;5052045;28;20420;-34
2022/03/29 12:36:14;;;;;;;103.13;54.20;;;10.90;99.90;;;;;;5053396;28;20420;-34
2022/03/29 12:38:52;;;;;;;104.30;49.73;;;11.00;99.90;;;;;;5050327;28;20431;-34
2022/03/29 12:41:35;;;;;;;96.30;46.63;;;11.10;99.90;;;;;;5049116;28;20450;-34
2022/03/29 12:44:02;;;;;;;77.00;45.23;;;11.20;99.90;;;;;;5077953;28;20418;-34
2022/03/29 12:46:29;;;;;;;76.83;44.70;;;11.20;99.90;;;;;;5055213;28;20737;-34
2022/03/29 12:48:56;;;;;;;81.97;47.40;;;11.20;99.90;;;;;;5050311;28;20477;-34